Shoyo Maru — JLOJ — position and weather

sailwx.info

Track history (hours):
 
Tides and Currents Weather Stations Pressure Air Temp Water Temp Dewpoint Dewpoint Depression Visibility Wind Speed Wind Dir Waves Ship Positions

Oceanographic research ship Shoyo Maru (Japan)

Detailed information on ship capabilities available from University of Delaware's Ocean Information Center.

Last reported at 2016-Jul-28 05:22 UTC. Time now 2016-Jul-30 05:27 UTC.
Position N 35°39' E 139°46'.

Length 87.6 m; beam 14 m.

Type: Other ship. MMSI: 431465000.

Date/timePositionNaut miles runAvg speedWind from/ knotsBaromVisibWave heightAir tempDewpointWater temp
2016-Jul-28 05:22N 35°39' E 139°46'0 0.0
2016-Jul-28 04:31N 35°39' E 139°46'0 0.0
2016-Jul-28 03:31N 35°39' E 139°46'0 0.0
2016-Jul-28 02:22N 35°39' E 139°46'0 0.0
2016-Jul-28 01:31N 35°39' E 139°46'0 0.0
2016-Jul-28 00:31N 35°39' E 139°46'2 2.0
2016-Jul-27 23:33N 35°37' E 139°46'6 6.4
2016-Jul-27 22:33N 35°33' E 139°53'0 0.0
2016-Jul-27 21:33N 35°33' E 139°53'0 0.0
2016-Jul-27 20:30N 35°33' E 139°53'0 0.0
2016-Jul-27 19:30N 35°33' E 139°53'0 0.0
2016-Jul-27 18:30N 35°33' E 139°53'0 0.0
2016-Jul-27 17:27N 35°33' E 139°53'0 0.0
2016-Jul-27 16:33N 35°33' E 139°53'0 0.0
2016-Jul-27 15:24N 35°33' E 139°53'0 0.1
2016-Jul-27 14:33N 35°33' E 139°53'0 0.0
2016-Jul-27 13:33N 35°33' E 139°53'0 0.0
2016-Jul-27 12:33N 35°33' E 139°53'0 0.0
2016-Jul-27 11:33N 35°33' E 139°53'5 4.6
2016-Jul-27 10:33N 35°29' E 139°52'1212.3
2016-Jul-27 09:33N 35°18' E 139°45'1212.4
2016-Jul-27 08:33N 35°06' E 139°47'  
Track history (hours):
 
Tides and Currents Weather Stations Pressure Air Temp Water Temp Dewpoint Dewpoint Depression Visibility Wind Speed Wind Dir Waves Ship Positions

Oceanographic research ship Shoyo Maru (Japan)

Detailed information on ship capabilities available from University of Delaware's Ocean Information Center.

Last reported at 2016-Jul-28 05:22 UTC. Time now 2016-Jul-30 05:27 UTC.
Position N 35°39' E 139°46'.

Length 87.6 m; beam 14 m.

Type: Other ship. MMSI: 431465000.

Date/timePositionNaut miles runAvg speedWind from/ knotsBaromVisibWave heightAir tempDewpointWater temp
2016-Jul-28 05:22N 35°39' E 139°46'0 0.0
2016-Jul-28 04:31N 35°39' E 139°46'0 0.0
2016-Jul-28 03:31N 35°39' E 139°46'0 0.0
2016-Jul-28 02:22N 35°39' E 139°46'0 0.0
2016-Jul-28 01:31N 35°39' E 139°46'0 0.0
2016-Jul-28 00:31N 35°39' E 139°46'2 2.0
2016-Jul-27 23:33N 35°37' E 139°46'6 6.4
2016-Jul-27 22:33N 35°33' E 139°53'0 0.0
2016-Jul-27 21:33N 35°33' E 139°53'0 0.0
2016-Jul-27 20:30N 35°33' E 139°53'0 0.0
2016-Jul-27 19:30N 35°33' E 139°53'0 0.0
2016-Jul-27 18:30N 35°33' E 139°53'0 0.0
2016-Jul-27 17:27N 35°33' E 139°53'0 0.0
2016-Jul-27 16:33N 35°33' E 139°53'0 0.0
2016-Jul-27 15:24N 35°33' E 139°53'0 0.1
2016-Jul-27 14:33N 35°33' E 139°53'0 0.0
2016-Jul-27 13:33N 35°33' E 139°53'0 0.0
2016-Jul-27 12:33N 35°33' E 139°53'0 0.0
2016-Jul-27 11:33N 35°33' E 139°53'5 4.6
2016-Jul-27 10:33N 35°29' E 139°52'1212.3
2016-Jul-27 09:33N 35°18' E 139°45'1212.4
2016-Jul-27 08:33N 35°06' E 139°47'  

Dump ship's entire track history